Flight Track Log - Related Links

Times and Time Zones

All times are in EDT time to prevent confusion due to time zone crossing. See the N2317S flight status page for this flight to view local times or setup timezone preferences in your user account.

Time Position Orientation Groundspeed Altitude Reporting Facility
EDT Latitude Longitude Course Direction KTS MPH feet Rate Location/Type
Thu 08:57:37 AM 41.7458 -72.6544 360° North 81 93 400  Level Boston Center
Thu 08:57:50 AM 41.7519 -72.6544 360° North 90 104 700 822 Climbing Boston Center
Thu 08:58:50 AM 41.7686 -72.6850 306° West 120 138 1,400 639 Climbing Boston Center
Thu 08:59:52 AM 41.7728 -72.7294 277° West 132 152 2,000 672 Climbing Boston Center
Thu 09:00:46 AM 41.7706 -72.7742 266° West 125 144 2,700 793 Climbing Boston Center
Thu 09:01:53 AM 41.7911 -72.8106 307° West 110 127 3,600 756 Climbing Boston Center
Thu 09:02:53 AM 41.8183 -72.8328 329° Northwest 115 132 4,300 744 Climbing Boston Center
Thu 09:03:54 AM 41.8453 -72.8553 328° Northwest 121 139 5,100 783 Climbing Boston Center
Thu 09:04:48 AM 41.8722 -72.8806 325° Northwest 119 137 5,800 730 Climbing Boston Center
Thu 09:05:49 AM 41.9014 -72.8892 348° North 121 139 6,500 744 Climbing Boston Center
Thu 09:06:49 AM 41.9367 -72.8978 350° North 118 136 7,300 732 Climbing Boston Center
Thu 09:07:52 AM 41.9700 -72.9008 356° North 122 140 8,000 347 Climbing Boston Center
Thu 09:08:50 AM 42.0097 -72.9067 354° North 156 180 8,000  Level Boston Center
Thu 09:09:51 AM 42.0556 -72.9156 352° North 175 201 8,000  Level Boston Center
Thu 09:10:52 AM 42.1014 -72.9242 352° North 166 191 8,000  Level Boston Center
Thu 09:12:01 AM 42.1514 -72.9303 355° North 159 183 8,000  Level Boston Center
Thu 09:13:08 AM 42.2014 -72.9361 355° North 157 181 8,000  Level Boston Center
Thu 09:14:06 AM 42.2472 -72.9450 352° North 159 183 8,000  Level Boston Center
Thu 09:14:51 AM 42.2764 -72.9508 352° North 159 183 8,000  Level Boston Center
Thu 09:15:58 AM 42.3242 -72.9708 343° North 152 175 8,000  Level Boston Center
Thu 09:16:59 AM 42.3636 -72.9936 337° Northwest 151 174 8,000  Level Boston Center
Thu 09:18:00 AM 42.4011 -73.0136 339° North 152 175 8,000  Level Boston Center
Thu 09:19:00 AM 42.4425 -73.0394 335° Northwest 154 177 8,000  Level Boston Center
Thu 09:20:08 AM 42.4861 -73.0622 339° North 156 180 8,000  Level Boston Center
Thu 09:21:08 AM 42.5278 -73.0825 340° North 156 180 8,000  Level Boston Center
Thu 09:22:09 AM 42.5672 -73.1053 337° Northwest 154 177 8,000  Level Boston Center
Thu 09:23:09 AM 42.6047 -73.1311 333° Northwest 154 177 8,000  Level Boston Center
Thu 09:24:10 AM 42.6483 -73.1514 341° North 153 176 8,000  Level Boston Center
Thu 09:25:16 AM 42.6919 -73.1744 339° North 153 176 8,000  Level Boston Center
Thu 09:26:17 AM 42.7314 -73.2003 334° Northwest 152 175 8,000  Level Boston Center
Thu 09:27:20 AM 42.7686 -73.2206 338° Northwest 152 175 8,000  Level Boston Center
Thu 09:28:19 AM 42.8081 -73.2411 339° North 153 176 8,000  Level Boston Center
Thu 09:29:27 AM 42.8539 -73.2669 338° Northwest 152 175 8,000  Level Boston Center
Thu 09:30:33 AM 42.8933 -73.2903 337° Northwest 150 173 8,000  Level Boston Center
Thu 09:31:33 AM 42.9347 -73.3108 340° North 151 174 8,000  Level Boston Center
Thu 09:32:28 AM 42.9722 -73.3339 336° Northwest 152 175 8,000  Level Boston Center
Thu 09:33:28 AM 43.0117 -73.3458 348° North 157 181 8,000  Level Boston Center
Thu 09:34:29 AM 43.0575 -73.3436 North 163 188 8,000  Level Boston Center
Thu 09:35:50 AM 43.1200 -73.3361 North 173 199 8,000  Level Boston Center
Thu 09:36:50 AM 43.1597 -73.3367 359° North 173 199 8,000  Level Boston Center
Thu 09:37:52 AM 43.2075 -73.3344 North 165 190 8,000  Level Boston Center
Thu 09:38:52 AM 43.2492 -73.3322 North 160 184 8,000  Level Boston Center
Thu 09:39:50 AM 43.2994 -73.3303 North 160 184 8,000  Level Boston Center
Thu 09:40:51 AM 43.3389 -73.3278 North 160 184 8,000  Level Boston Center
Thu 09:41:51 AM 43.3889 -73.3258 North 160 184 8,000  Level Boston Center
Thu 09:42:52 AM 43.4369 -73.3236 North 160 184 8,000  Level Boston Center
Thu 09:43:52 AM 43.4806 -73.3242 359° North 160 184 8,000  Level Boston Center
Thu 09:44:49 AM 43.5244 -73.3192 North 160 184 8,000  Level Boston Center
Thu 09:45:50 AM 43.5661 -73.3169 North 160 184 8,000  Level Boston Center
Thu 09:46:51 AM 43.6119 -73.3175 359° North 160 184 8,000  Level Boston Center
Thu 09:47:51 AM 43.6558 -73.3153 North 160 184 8,000  Level Boston Center
Thu 09:48:51 AM 43.6994 -73.3131 North 160 184 8,000  Level Boston Center
Thu 09:49:52 AM 43.7433 -73.3050 North 160 184 8,000  Level Boston Center
Thu 09:50:49 AM 43.7894 -73.2942 10° North 160 184 8,000  Level Boston Center
Thu 09:51:50 AM 43.8289 -73.2892 North 160 184 8,000  Level Boston Center
Thu 09:52:50 AM 43.8728 -73.2781 10° North 160 184 8,000  Level Boston Center
Thu 09:53:51 AM 43.9186 -73.2703 North 160 184 8,000  Level Boston Center
Thu 09:54:52 AM 43.9625 -73.2622 North 160 184 8,000 -50 Level Boston Center
Thu 09:55:52 AM 44.0064 -73.2569 North 160 184 7,900 -356 Descending Boston Center
Thu 09:56:50 AM 44.0542 -73.2461 North 160 184 7,300 -504 Descending Boston Center
Thu 09:57:51 AM 44.0981 -73.2381 North 160 184 6,900 -446 Descending Boston Center
Thu 09:58:51 AM 44.1503 -73.2444 355° North 160 184 6,400 -545 Descending Boston Center
Thu 09:59:52 AM 44.1958 -73.2536 352° North 160 184 5,800 -645 Descending Boston Center
Thu 10:00:52 AM 44.2397 -73.2631 351° North 165 190 5,100 -718 Descending Boston Center
Thu 10:01:49 AM 44.2856 -73.2636 360° North 158 182 4,400 -737 Descending Boston Center
Thu 10:03:00 AM 44.3284 -73.2383 12° North  Level Estimated
Thu 10:10:00 AM 44.4667 -73.1500 10° North  Level FlightAware Approximate
Thu 10:11:00 AM 44.4719 -73.1533 10° North  Level Estimated
Thu 10:12:00 AM 44.4667 -73.1500 10° North  Level FlightAware Approximate
Thu 10:13:00 AM 44.4719 -73.1533 10° North  Level Estimated
Thu 10:14:00 AM 44.4667 -73.1500 10° North  Level FlightAware Approximate
Thu 10:15:00 AM 44.4719 -73.1533 10° North  Level Estimated
Thu 10:16:00 AM 44.4667 -73.1500 10° North  Level FlightAware Approximate
Thu 10:17:00 AM 44.4719 -73.1533 10° North  Level Estimated

Login

Don't have an account? Register now (free) for customized features, flight alerts, and more!